Time;durP1;ratioP1;P1;durP2;ratioP2;P2;SDS_P1;SDS_P2;PMS_P1;PMS_P2;Temp;Humidity;BMP_temperature;BMP_pressure;BME280_temperature;BME280_humidity;BME280_pressure;Samples;Min_cycle;Max_cycle;Signal;HPM_P1;HPM_P2
2022/04/16 00:02:20;;;;;;;10.85;8.00;;;9.90;73.90;;;;;;5053275;28;20054;-38
2022/04/16 00:04:47;;;;;;;9.68;7.63;;;9.80;74.00;;;;;;5053271;28;20425;-39
2022/04/16 00:07:13;;;;;;;11.30;7.78;;;9.70;74.00;;;;;;5053380;28;20025;-40
2022/04/16 00:09:39;;;;;;;11.10;7.60;;;9.70;74.20;;;;;;5053421;28;20055;-39
2022/04/16 00:12:05;;;;;;;9.60;7.20;;;9.60;74.30;;;;;;5053131;28;20112;-40
2022/04/16 00:14:31;;;;;;;9.45;7.68;;;9.60;74.40;;;;;;5053230;28;20140;-38
2022/04/16 00:16:57;;;;;;;11.40;8.00;;;9.60;74.50;;;;;;5052977;28;20088;-39
2022/04/16 00:19:23;;;;;;;11.82;7.78;;;9.50;74.60;;;;;;5034723;28;20115;-38
2022/04/16 00:21:48;;;;;;;9.68;7.53;;;9.50;74.80;;;;;;5052938;28;20100;-39
2022/04/16 00:24:14;;;;;;;10.75;7.80;;;9.50;74.90;;;;;;5052902;28;20393;-39
2022/04/16 00:26:41;;;;;;;9.55;8.18;;;9.40;74.90;;;;;;5053130;28;20064;-39
2022/04/16 00:29:08;;;;;;;10.65;8.60;;;9.40;75.00;;;;;;5052803;28;20105;-39
2022/04/16 00:31:34;;;;;;;10.77;7.72;;;9.40;75.20;;;;;;5052708;28;20025;-38
2022/04/16 00:34:01;;;;;;;9.88;8.50;;;9.30;75.20;;;;;;5052937;28;20090;-38
2022/04/16 00:36:26;;;;;;;9.25;7.63;;;9.30;75.30;;;;;;5052621;28;20499;-42
2022/04/16 00:38:52;;;;;;;14.70;8.98;;;9.20;75.40;;;;;;5052999;28;20049;-37
2022/04/16 00:41:18;;;;;;;11.13;8.05;;;9.20;75.50;;;;;;5052553;28;20132;-46
2022/04/16 00:43:43;;;;;;;12.25;8.98;;;9.20;75.60;;;;;;5052599;28;20119;-38
2022/04/16 00:46:09;;;;;;;10.52;8.40;;;9.20;75.70;;;;;;5052518;28;20151;-43
2022/04/16 00:48:35;;;;;;;12.05;8.50;;;9.10;75.80;;;;;;5034588;28;20110;-36
2022/04/16 00:51:01;;;;;;;14.95;9.57;;;9.10;75.90;;;;;;5052542;28;20083;-39
2022/04/16 00:53:30;;;;;;;12.15;9.50;;;9.00;76.00;;;;;;5052475;28;20044;-37
2022/04/16 00:55:58;;;;;;;11.02;8.75;;;9.00;76.10;;;;;;5052369;28;20021;-37
2022/04/16 00:58:23;;;;;;;11.68;9.20;;;9.00;76.30;;;;;;5052504;28;20024;-39
2022/04/16 01:00:49;;;;;;;13.63;9.70;;;8.90;76.30;;;;;;5052544;28;20021;-38
2022/04/16 01:03:15;;;;;;;13.73;9.43;;;8.90;76.40;;;;;;5052095;28;20025;-38
2022/04/16 01:05:41;;;;;;;11.57;9.15;;;8.90;76.50;;;;;;5051972;28;20158;-39
2022/04/16 01:08:08;;;;;;;11.77;9.85;;;8.80;76.60;;;;;;5052375;28;20384;-38
2022/04/16 01:10:34;;;;;;;12.98;9.15;;;8.80;76.70;;;;;;5052339;28;20468;-38
2022/04/16 01:13:02;;;;;;;13.32;9.70;;;8.80;76.80;;;;;;5052475;28;20032;-39
2022/04/16 01:15:31;;;;;;;12.80;9.85;;;8.70;76.90;;;;;;5052385;28;20082;-37
2022/04/16 01:17:59;;;;;;;12.02;10.05;;;8.70;76.90;;;;;;5052278;28;20434;-38
2022/04/16 01:20:25;;;;;;;12.27;9.10;;;8.70;77.10;;;;;;5052048;28;20017;-39
2022/04/16 01:22:52;;;;;;;13.48;9.63;;;8.60;77.10;;;;;;5052031;28;20040;-37
2022/04/16 01:25:18;;;;;;;13.05;9.60;;;8.60;77.20;;;;;;5051990;28;20103;-39
2022/04/16 01:27:45;;;;;;;15.38;11.00;;;8.60;77.30;;;;;;5051872;28;20071;-39
2022/04/16 01:30:13;;;;;;;15.73;10.88;;;8.50;77.30;;;;;;5052222;28;20040;-39
2022/04/16 01:32:40;;;;;;;16.00;12.48;;;8.50;77.50;;;;;;5051162;28;20036;-39
2022/04/16 01:35:06;;;;;;;17.38;11.68;;;8.50;77.60;;;;;;5052167;28;20056;-38
2022/04/16 01:37:34;;;;;;;15.90;11.60;;;8.40;77.70;;;;;;5051826;28;20070;-40
2022/04/16 01:40:01;;;;;;;16.05;12.48;;;8.40;77.80;;;;;;5051718;28;20086;-37
2022/04/16 01:42:29;;;;;;;16.73;11.27;;;8.40;78.00;;;;;;5051710;28;20029;-38
2022/04/16 01:44:56;;;;;;;17.17;11.63;;;8.40;78.00;;;;;;5051861;28;20127;-39
2022/04/16 01:47:22;;;;;;;17.05;12.18;;;8.40;78.10;;;;;;5051690;28;20112;-37
2022/04/16 01:49:47;;;;;;;16.08;11.93;;;8.30;78.40;;;;;;5051690;28;20071;-38
2022/04/16 01:52:13;;;;;;;15.18;11.48;;;8.30;78.40;;;;;;5051824;28;20037;-38
2022/04/16 01:54:41;;;;;;;14.85;11.48;;;8.30;78.40;;;;;;5033644;28;20032;-39
2022/04/16 01:57:07;;;;;;;14.48;12.00;;;8.30;78.50;;;;;;5051581;28;20108;-39
2022/04/16 01:59:32;;;;;;;17.65;11.48;;;8.30;78.60;;;;;;5051627;28;20511;-39
2022/04/16 02:01:58;;;;;;;13.65;11.50;;;8.30;78.70;;;;;;5051757;28;20028;-44
2022/04/16 02:04:24;;;;;;;16.77;11.93;;;8.20;78.70;;;;;;5051756;28;20021;-37
2022/04/16 02:06:51;;;;;;;15.02;11.07;;;8.20;78.80;;;;;;5052033;28;20032;-38
2022/04/16 02:09:17;;;;;;;13.75;10.85;;;8.20;78.80;;;;;;5051588;28;20029;-37
2022/04/16 02:11:43;;;;;;;15.77;11.48;;;8.10;78.80;;;;;;5051613;28;20025;-41
2022/04/16 02:14:09;;;;;;;16.33;11.77;;;8.10;79.00;;;;;;5051468;28;20101;-37
2022/04/16 02:16:34;;;;;;;14.55;11.55;;;8.10;79.10;;;;;;5051804;28;20112;-39
2022/04/16 02:19:00;;;;;;;17.02;11.25;;;8.10;79.10;;;;;;5051515;28;20029;-38
2022/04/16 02:21:32;;;;;;;15.88;10.85;;;8.10;79.10;;;;;;5051559;28;20025;-37
2022/04/16 02:23:58;;;;;;;17.25;11.10;;;8.10;79.20;;;;;;5051315;28;20510;-39
2022/04/16 02:26:25;;;;;;;18.23;11.38;;;8.10;79.80;;;;;;5051344;28;20392;-39
2022/04/16 02:28:50;;;;;;;15.13;10.45;;;8.10;79.20;;;;;;5051297;28;20025;-39
2022/04/16 02:31:16;;;;;;;15.05;10.45;;;8.10;79.20;;;;;;5051220;28;20086;-37
2022/04/16 02:33:41;;;;;;;15.18;10.52;;;8.10;79.20;;;;;;5051365;28;20040;-39
2022/04/16 02:36:08;;;;;;;14.68;10.45;;;8.10;79.20;;;;;;5051180;28;20171;-39
2022/04/16 02:38:34;;;;;;;14.35;10.65;;;8.10;79.20;;;;;;5051491;28;20052;-39
2022/04/16 02:41:00;;;;;;;13.32;10.52;;;8.20;79.20;;;;;;5051441;28;20057;-39
2022/04/16 02:43:25;;;;;;;16.17;10.55;;;8.10;79.20;;;;;;5052744;28;20040;-39
2022/04/16 02:48:35;;;;;;;13.85;10.88;;;8.10;79.30;;;;;;5054780;28;20036;-39
2022/04/16 02:51:02;;;;;;;13.45;10.23;;;8.10;79.20;;;;;;5054993;28;20099;-38
2022/04/16 02:53:29;;;;;;;14.98;11.07;;;8.10;79.30;;;;;;5054923;28;20029;-38
2022/04/16 02:55:55;;;;;;;14.45;10.75;;;8.10;79.40;;;;;;5054827;28;20475;-39
2022/04/16 02:58:21;;;;;;;13.45;10.48;;;8.10;79.40;;;;;;5054668;28;20033;-38
2022/04/16 03:00:48;;;;;;;15.00;11.40;;;8.10;79.40;;;;;;5054537;28;20116;-39
2022/04/16 03:03:14;;;;;;;17.55;11.45;;;8.10;79.50;;;;;;5054337;28;20021;-44
2022/04/16 03:05:39;;;;;;;15.05;11.65;;;8.00;79.50;;;;;;5054630;28;20472;-38
2022/04/16 03:08:07;;;;;;;15.65;10.98;;;8.00;79.60;;;;;;5054238;28;20028;-38
2022/04/16 03:10:33;;;;;;;15.88;11.63;;;7.90;79.60;;;;;;5054526;28;20035;-38
2022/04/16 03:12:59;;;;;;;16.10;11.50;;;7.90;79.70;;;;;;5036296;28;20415;-37
2022/04/16 03:18:09;;;;;;;14.95;10.73;;;7.90;79.80;;;;;;5054482;28;20122;-39
2022/04/16 03:20:37;;;;;;;16.00;11.27;;;7.90;79.90;;;;;;5054302;28;20118;-44
2022/04/16 03:23:03;;;;;;;14.95;11.48;;;7.90;79.90;;;;;;5053951;28;20037;-38
2022/04/16 03:25:29;;;;;;;16.48;11.93;;;7.90;80.00;;;;;;5054224;28;20041;-38
2022/04/16 03:27:56;;;;;;;15.13;10.82;;;7.80;80.00;;;;;;5053975;28;20056;-37
2022/04/16 03:30:23;;;;;;;17.67;11.75;;;7.80;80.10;;;;;;5054154;28;20039;-37
2022/04/16 03:32:50;;;;;;;15.75;11.30;;;7.80;80.10;;;;;;5054134;28;20100;-39
2022/04/16 03:35:18;;;;;;;17.13;12.15;;;7.70;80.10;;;;;;5053752;28;20037;-39
2022/04/16 03:37:44;;;;;;;17.08;11.10;;;7.80;80.20;;;;;;5050814;28;20090;-39
2022/04/16 03:40:12;;;;;;;14.48;11.43;;;7.70;80.30;;;;;;5053674;28;20025;-43
2022/04/16 03:42:48;;;;;;;15.63;12.05;;;7.70;80.30;;;;;;5053887;28;20037;-39
2022/04/16 03:45:21;;;;;;;17.10;12.25;;;7.80;80.50;;;;;;5053572;28;20051;-40
2022/04/16 03:47:50;;;;;;;18.55;13.20;;;7.70;80.50;;;;;;5053523;28;20476;-40
2022/04/16 03:50:17;;;;;;;16.10;12.27;;;7.70;80.60;;;;;;5053465;28;20029;-38
2022/04/16 03:52:44;;;;;;;15.80;11.93;;;7.70;80.70;;;;;;5053528;28;20033;-38
2022/04/16 04:00:52;;;;;;;15.98;11.25;;;7.60;80.90;;;;;;5053720;28;20051;-39
2022/04/16 04:03:18;;;;;;;16.05;11.88;;;7.60;80.90;;;;;;5053541;28;20025;-38
2022/04/16 04:05:45;;;;;;;17.02;12.13;;;7.60;80.90;;;;;;5053341;28;20049;-39
2022/04/16 04:08:12;;;;;;;17.25;11.88;;;7.60;81.00;;;;;;5053229;28;20021;-39
2022/04/16 04:10:38;;;;;;;15.93;13.07;;;7.60;81.10;;;;;;5053485;28;20037;-38
2022/04/16 04:13:04;;;;;;;17.65;12.40;;;7.50;81.10;;;;;;5053120;28;20028;-38
2022/04/16 04:15:30;;;;;;;17.17;12.82;;;7.50;81.20;;;;;;5052998;28;20021;-37
2022/04/16 04:17:57;;;;;;;17.58;12.93;;;7.50;81.30;;;;;;5053021;28;20379;-37
2022/04/16 04:20:23;;;;;;;18.23;11.98;;;7.50;81.40;;;;;;5052895;28;20032;-37
2022/04/16 04:22:49;;;;;;;16.33;12.45;;;7.50;81.40;;;;;;5052911;28;20076;-40
2022/04/16 04:25:14;;;;;;;17.83;12.88;;;7.50;81.40;;;;;;5052937;28;20125;-39
2022/04/16 04:27:40;;;;;;;16.52;11.80;;;7.50;81.40;;;;;;5052835;28;20116;-44
2022/04/16 04:30:06;;;;;;;16.70;11.27;;;7.50;81.50;;;;;;5052793;28;20037;-38
2022/04/16 04:32:32;;;;;;;16.73;11.82;;;7.40;81.50;;;;;;5052818;28;20055;-38
2022/04/16 04:34:57;;;;;;;16.80;11.98;;;7.50;81.50;;;;;;5052579;28;20029;-38
2022/04/16 04:37:23;;;;;;;15.65;11.90;;;7.50;81.50;;;;;;5052879;28;20047;-39
2022/04/16 04:39:50;;;;;;;15.13;11.63;;;7.50;81.60;;;;;;5052603;28;20032;-39
2022/04/16 04:42:30;;;;;;;15.88;11.82;;;7.50;81.60;;;;;;5052577;28;20563;-38
2022/04/16 04:44:56;;;;;;;17.55;12.25;;;7.50;81.60;;;;;;5052483;28;20024;-39
2022/04/16 04:47:22;;;;;;;16.38;11.90;;;7.50;81.60;;;;;;5052494;28;20051;-48
2022/04/16 04:49:49;;;;;;;18.35;12.85;;;7.50;81.60;;;;;;5052798;28;20032;-39
2022/04/16 04:52:26;;;;;;;17.83;12.30;;;7.50;81.60;;;;;;5052610;28;20444;-40
2022/04/16 04:54:52;;;;;;;17.15;12.48;;;7.50;81.70;;;;;;5052306;28;20025;-40
2022/04/16 04:57:18;;;;;;;17.88;12.75;;;7.50;81.70;;;;;;5052763;28;20029;-37
2022/04/16 04:59:43;;;;;;;15.93;12.18;;;7.50;81.70;;;;;;5052652;28;20033;-39
2022/04/16 05:02:09;;;;;;;19.02;13.30;;;7.50;81.70;;;;;;5052592;28;20017;-39
2022/04/16 05:04:35;;;;;;;18.77;13.18;;;7.60;81.80;;;;;;5052512;28;20017;-39
2022/04/16 05:07:03;;;;;;;17.85;12.43;;;7.60;81.90;;;;;;5051590;28;20037;-39
2022/04/16 05:09:29;;;;;;;17.30;12.85;;;7.60;81.90;;;;;;5052297;28;20018;-40
2022/04/16 05:11:54;;;;;;;24.15;13.82;;;7.60;82.00;;;;;;5052074;28;20075;-38
2022/04/16 05:14:20;;;;;;;18.73;13.85;;;7.60;82.00;;;;;;5052077;28;20102;-37
2022/04/16 05:16:46;;;;;;;17.35;13.25;;;7.60;82.00;;;;;;5052108;28;20036;-38
2022/04/16 05:19:12;;;;;;;19.17;12.70;;;7.60;82.10;;;;;;5034074;28;20024;-38
2022/04/16 05:21:37;;;;;;;20.27;15.13;;;7.60;82.10;;;;;;5051761;28;20032;-37
2022/04/16 05:24:06;;;;;;;19.95;13.18;;;7.60;82.20;;;;;;5052018;28;20033;-38
2022/04/16 05:26:32;;;;;;;18.40;14.07;;;7.60;82.20;;;;;;5051778;28;20420;-38
2022/04/16 05:28:58;;;;;;;17.38;13.02;;;7.60;82.30;;;;;;5034365;28;20017;-37
2022/04/16 05:31:26;;;;;;;20.83;14.65;;;7.60;82.30;;;;;;5052030;28;20025;-39
2022/04/16 05:36:37;;;;;;;19.92;14.18;;;7.70;82.40;;;;;;5052241;28;20419;-37
2022/04/16 05:39:03;;;;;;;20.48;14.00;;;7.70;82.30;;;;;;5052108;28;20020;-38
2022/04/16 05:41:29;;;;;;;19.40;13.32;;;7.70;82.40;;;;;;5052240;28;20033;-45
2022/04/16 05:43:54;;;;;;;20.70;14.45;;;7.80;82.40;;;;;;5052435;28;20361;-39
2022/04/16 05:46:20;;;;;;;17.90;13.40;;;7.90;82.40;;;;;;5052008;28;20469;-38
2022/04/16 05:48:45;;;;;;;19.02;13.82;;;7.90;82.30;;;;;;5051937;28;20476;-39
2022/04/16 05:51:13;;;;;;;19.17;14.10;;;7.90;82.20;;;;;;5051825;28;20028;-39
2022/04/16 05:53:40;;;;;;;21.50;13.82;;;8.00;82.20;;;;;;5051694;28;20037;-39
2022/04/16 05:56:05;;;;;;;19.35;13.65;;;8.00;82.20;;;;;;5051815;28;20094;-40
2022/04/16 05:58:31;;;;;;;19.20;14.40;;;8.10;82.30;;;;;;5033592;28;20029;-39
2022/04/16 06:00:57;;;;;;;19.73;14.27;;;8.10;82.20;;;;;;5051737;28;20025;-38
2022/04/16 06:03:23;;;;;;;17.65;13.07;;;8.20;82.30;;;;;;5051618;28;20017;-37
2022/04/16 06:05:49;;;;;;;20.58;15.43;;;8.20;82.20;;;;;;5051790;28;20131;-38
2022/04/16 06:08:14;;;;;;;22.17;14.32;;;8.30;82.20;;;;;;5051452;28;20017;-38
2022/04/16 06:10:40;;;;;;;18.63;14.13;;;8.40;82.20;;;;;;5051414;28;20052;-38
2022/04/16 06:13:06;;;;;;;19.60;14.10;;;8.40;82.10;;;;;;5051462;28;20025;-37
2022/04/16 06:15:32;;;;;;;20.25;14.57;;;8.50;82.20;;;;;;5051592;28;20478;-38
2022/04/16 06:17:58;;;;;;;17.02;12.70;;;8.50;82.10;;;;;;5052175;28;20029;-39
2022/04/16 06:20:24;;;;;;;19.05;13.95;;;8.60;82.20;;;;;;5055381;28;20092;-38
2022/04/16 06:22:49;;;;;;;16.40;12.73;;;8.60;82.20;;;;;;5055131;28;20040;-39
2022/04/16 06:25:15;;;;;;;17.65;13.73;;;8.70;82.20;;;;;;5055102;28;20120;-39
2022/04/16 06:27:40;;;;;;;19.20;14.23;;;8.70;82.20;;;;;;5055084;28;20024;-38
2022/04/16 06:30:10;;;;;;;18.55;12.73;;;8.70;82.10;;;;;;5055310;28;20103;-39
2022/04/16 06:32:36;;;;;;;20.95;14.50;;;8.80;82.10;;;;;;5055120;28;20032;-39
2022/04/16 06:35:05;;;;;;;19.98;13.70;;;8.90;82.10;;;;;;5037370;28;20037;-39
2022/04/16 06:37:36;;;;;;;18.92;13.68;;;8.90;82.00;;;;;;5055371;28;20017;-39
2022/04/16 06:40:02;;;;;;;17.13;12.68;;;9.00;82.20;;;;;;5055197;28;20021;-38
2022/04/16 06:42:28;;;;;;;14.30;11.23;;;9.00;82.10;;;;;;5055157;28;20017;-39
2022/04/16 06:44:54;;;;;;;14.80;11.27;;;9.10;82.10;;;;;;5054831;28;20041;-40
2022/04/16 06:47:19;;;;;;;14.02;10.48;;;9.10;82.10;;;;;;5055024;28;20017;-36
2022/04/16 06:49:45;;;;;;;15.75;10.63;;;9.20;82.10;;;;;;5054991;28;20432;-38
2022/04/16 06:52:12;;;;;;;13.50;10.10;;;9.20;82.00;;;;;;5054646;28;20216;-38
2022/04/16 06:54:38;;;;;;;12.90;9.70;;;9.30;82.00;;;;;;5054849;28;20029;-39
2022/04/16 06:57:04;;;;;;;12.82;8.85;;;9.40;82.10;;;;;;5054622;28;20082;-38
2022/04/16 06:59:29;;;;;;;11.68;8.77;;;9.40;82.20;;;;;;5036682;28;20021;-39
2022/04/16 07:01:55;;;;;;;11.38;8.82;;;9.50;82.50;;;;;;5054768;28;20021;-40
2022/04/16 07:04:20;;;;;;;16.52;10.13;;;9.50;82.40;;;;;;5054724;28;20078;-41
2022/04/16 07:06:46;;;;;;;13.18;9.35;;;9.50;82.70;;;;;;5054360;28;20045;-40
2022/04/16 07:09:12;;;;;;;8.63;6.65;;;9.60;82.80;;;;;;5054765;28;20100;-38
2022/04/16 07:11:37;;;;;;;12.00;8.82;;;9.60;83.20;;;;;;5054634;28;20036;-39
2022/04/16 07:14:03;;;;;;;10.57;8.27;;;9.70;83.10;;;;;;5054632;28;20025;-39
2022/04/16 07:16:28;;;;;;;11.27;8.77;;;9.70;83.00;;;;;;5036792;28;20095;-40
2022/04/16 07:18:54;;;;;;;10.55;8.77;;;9.80;83.30;;;;;;5055185;28;20024;-38
2022/04/16 07:21:19;;;;;;;11.95;9.30;;;9.80;83.30;;;;;;5054126;28;20021;-39
2022/04/16 07:23:45;;;;;;;13.60;10.35;;;9.80;83.00;;;;;;5054256;28;20052;-39
2022/04/16 07:26:10;;;;;;;13.32;9.02;;;9.80;82.90;;;;;;5054332;28;20021;-40
2022/04/16 07:28:36;;;;;;;14.23;10.68;;;9.80;82.70;;;;;;5054291;28;20180;-39
2022/04/16 07:31:01;;;;;;;12.98;10.07;;;9.80;82.60;;;;;;5053346;28;20459;-39
2022/04/16 07:33:30;;;;;;;13.43;9.98;;;9.90;82.50;;;;;;5054248;28;20063;-40
2022/04/16 07:35:56;;;;;;;14.23;10.65;;;10.00;82.40;;;;;;5054448;28;20017;-40
2022/04/16 07:38:22;;;;;;;12.38;9.57;;;10.00;82.20;;;;;;5054293;28;20013;-41
2022/04/16 07:40:48;;;;;;;16.15;10.68;;;10.10;82.00;;;;;;5054114;28;20506;-40
2022/04/16 07:43:15;;;;;;;12.00;9.15;;;10.10;81.80;;;;;;5053760;28;20021;-39
2022/04/16 07:45:41;;;;;;;10.93;8.02;;;10.20;82.00;;;;;;5053833;28;20021;-39
2022/04/16 07:48:07;;;;;;;13.82;9.90;;;10.20;82.20;;;;;;5053821;28;20029;-39
2022/04/16 07:50:33;;;;;;;12.25;9.82;;;10.20;82.10;;;;;;5053842;28;20024;-38
2022/04/16 07:52:59;;;;;;;11.35;9.05;;;10.30;81.90;;;;;;5053621;28;20529;-40
2022/04/16 07:55:28;;;;;;;12.73;9.10;;;10.40;82.00;;;;;;5054198;28;20021;-39
2022/04/16 07:57:54;;;;;;;8.18;6.85;;;10.40;81.90;;;;;;5053589;28;20028;-39
2022/04/16 08:00:19;;;;;;;14.50;10.10;;;10.40;81.70;;;;;;5053652;28;20021;-40
2022/04/16 08:02:45;;;;;;;12.88;9.77;;;10.50;81.70;;;;;;5053755;28;20032;-39
2022/04/16 08:05:10;;;;;;;12.40;9.68;;;10.50;81.50;;;;;;5053456;28;20025;-39
2022/04/16 08:07:36;;;;;;;10.52;7.43;;;10.60;81.40;;;;;;5053504;28;20028;-39
2022/04/16 08:10:02;;;;;;;11.20;8.50;;;10.70;81.40;;;;;;5053549;28;20079;-40
2022/04/16 08:12:28;;;;;;;12.23;9.07;;;10.70;81.10;;;;;;5053411;28;20028;-38
2022/04/16 08:14:53;;;;;;;12.38;10.15;;;10.70;80.90;;;;;;5053611;28;20032;-39
2022/04/16 08:17:19;;;;;;;14.98;9.57;;;10.70;80.80;;;;;;5053603;28;20025;-40
2022/04/16 08:19:44;;;;;;;7.90;6.32;;;10.80;80.70;;;;;;5053402;28;20021;-39
2022/04/16 08:22:17;;;;;;;9.77;7.10;;;10.80;81.40;;;;;;5053115;28;20037;-37
2022/04/16 08:24:54;;;;;;;11.30;8.63;;;10.90;80.90;;;;;;5053444;28;20423;-39
2022/04/16 08:27:21;;;;;;;10.85;7.97;;;10.90;80.40;;;;;;5053114;28;20045;-39
2022/04/16 08:29:46;;;;;;;12.63;8.80;;;11.00;80.40;;;;;;5053189;28;20041;-39
2022/04/16 08:32:12;;;;;;;12.45;8.77;;;11.00;80.20;;;;;;5052956;28;20076;-39
2022/04/16 08:34:38;;;;;;;12.85;9.15;;;11.10;79.90;;;;;;5052981;28;20415;-38
2022/04/16 08:37:04;;;;;;;11.10;8.57;;;11.20;79.70;;;;;;5053001;28;20384;-39
2022/04/16 08:39:30;;;;;;;9.27;7.15;;;11.20;79.50;;;;;;5053111;28;20048;-40
2022/04/16 08:41:57;;;;;;;10.55;7.60;;;11.30;79.30;;;;;;5052862;28;20060;-40
2022/04/16 08:44:25;;;;;;;10.00;7.65;;;11.40;79.30;;;;;;5035099;28;20044;-38
2022/04/16 08:46:53;;;;;;;10.32;7.72;;;11.40;78.90;;;;;;5052840;28;20029;-39
2022/04/16 08:49:20;;;;;;;9.30;6.40;;;11.40;78.70;;;;;;5053147;28;20163;-40
2022/04/16 08:51:47;;;;;;;11.18;7.70;;;11.50;78.80;;;;;;5052849;28;20057;-40
2022/04/16 08:54:13;;;;;;;9.88;8.02;;;11.50;78.50;;;;;;5052482;28;20025;-39
2022/04/16 08:56:39;;;;;;;11.90;9.05;;;11.50;78.40;;;;;;5052470;28;20051;-39
2022/04/16 08:59:05;;;;;;;11.63;8.32;;;11.60;78.30;;;;;;5052749;28;20091;-38
2022/04/16 09:01:30;;;;;;;11.23;6.60;;;11.60;78.20;;;;;;5034502;28;20370;-38
2022/04/16 09:03:58;;;;;;;9.05;7.10;;;11.70;78.20;;;;;;5052589;28;20029;-41
2022/04/16 09:06:25;;;;;;;10.18;8.02;;;11.80;77.70;;;;;;5052639;28;20092;-38
2022/04/16 09:08:51;;;;;;;9.48;7.00;;;11.80;77.70;;;;;;5052202;28;20033;-38
2022/04/16 09:11:22;;;;;;;9.43;7.50;;;11.90;77.40;;;;;;5052573;28;20031;-39
2022/04/16 09:13:50;;;;;;;8.50;6.45;;;12.10;77.30;;;;;;5052249;28;20035;-39
2022/04/16 09:16:17;;;;;;;9.50;7.03;;;12.20;77.10;;;;;;5052320;28;20100;-39
2022/04/16 09:18:50;;;;;;;9.07;6.60;;;12.30;76.40;;;;;;5052490;28;20123;-38
2022/04/16 09:21:17;;;;;;;9.35;6.05;;;12.40;76.20;;;;;;5052331;28;20029;-37
2022/04/16 09:23:52;;;;;;;8.80;6.28;;;12.50;76.20;;;;;;5052003;28;20403;-32
2022/04/16 09:26:32;;;;;;;9.68;6.75;;;12.70;76.00;;;;;;5052283;28;20036;-31
2022/04/16 09:29:24;;;;;;;9.27;6.20;;;12.70;75.60;;;;;;5051857;28;20021;-31
2022/04/16 09:31:51;;;;;;;10.65;6.55;;;12.80;75.50;;;;;;5047693;28;20037;-35
2022/04/16 09:34:19;;;;;;;7.40;5.75;;;12.80;75.30;;;;;;5052204;28;20035;-32
2022/04/16 09:36:45;;;;;;;8.63;5.75;;;12.90;75.10;;;;;;5052197;28;20400;-34
2022/04/16 09:39:11;;;;;;;8.60;6.05;;;13.00;75.00;;;;;;5051893;28;20013;-30
2022/04/16 09:41:41;;;;;;;8.70;6.90;;;13.10;74.40;;;;;;5052191;28;20054;-30
2022/04/16 09:44:21;;;;;;;7.85;6.32;;;13.00;74.20;;;;;;5034274;28;20032;-33
2022/04/16 09:46:49;;;;;;;7.55;5.50;;;13.00;74.20;;;;;;5052011;28;20029;-31
2022/04/16 09:49:16;;;;;;;7.53;5.07;;;13.10;74.30;;;;;;5051690;28;20051;-33
2022/04/16 09:51:44;;;;;;;7.70;6.18;;;13.20;74.00;;;;;;5051975;28;20056;-30
2022/04/16 09:54:11;;;;;;;8.38;6.10;;;13.20;73.70;;;;;;5054815;28;20025;-33
2022/04/16 09:56:41;;;;;;;9.50;7.28;;;13.30;73.30;;;;;;5056049;28;20067;-34
2022/04/16 09:59:08;;;;;;;8.18;6.60;;;13.40;73.00;;;;;;5056118;28;20044;-33
2022/04/16 10:01:38;;;;;;;8.95;6.20;;;13.40;72.60;;;;;;5056004;28;20013;-31
2022/04/16 10:04:04;;;;;;;7.20;4.75;;;13.50;72.40;;;;;;5055660;28;20558;-33
2022/04/16 10:06:30;;;;;;;8.30;5.20;;;13.60;72.10;;;;;;5055467;28;20482;-33
2022/04/16 10:08:58;;;;;;;6.40;5.00;;;13.80;72.10;;;;;;5055810;28;20022;-39
2022/04/16 10:14:40;;;;;;;6.07;4.95;;;14.00;71.50;;;;;;5013471;28;20231;-31
2022/04/16 10:17:24;;;;;;;6.93;4.90;;;14.10;70.70;;;;;;5013554;28;20399;-31
2022/04/16 10:19:49;;;;;;;5.45;4.63;;;14.10;70.40;;;;;;5041802;28;20339;-32
2022/04/16 10:22:25;;;;;;;6.40;4.88;;;14.10;69.20;;;;;;5055291;28;20119;-32
2022/04/16 10:24:58;;;;;;;5.93;4.43;;;14.10;69.50;;;;;;5055695;28;20361;-31
2022/04/16 10:27:26;;;;;;;5.22;4.13;;;14.10;69.60;;;;;;5055485;28;20048;-32
2022/04/16 10:29:52;;;;;;;6.28;4.57;;;14.20;69.30;;;;;;5055381;28;20076;-30
2022/04/16 10:32:18;;;;;;;5.20;4.28;;;14.30;69.30;;;;;;5055120;28;20094;-31
2022/04/16 10:34:45;;;;;;;3.97;3.05;;;14.30;69.40;;;;;;5054937;28;20045;-33
2022/04/16 10:37:24;;;;;;;5.88;4.30;;;14.40;69.30;;;;;;5055205;28;20088;-34
2022/04/16 10:39:53;;;;;;;4.68;3.65;;;14.50;69.00;;;;;;5055116;28;20325;-32
2022/04/16 10:42:32;;;;;;;5.15;4.30;;;14.60;68.50;;;;;;5054828;28;20476;-31
2022/04/16 10:45:08;;;;;;;4.15;3.22;;;14.70;68.30;;;;;;5054894;28;20112;-34
2022/04/16 10:47:37;;;;;;;3.58;2.83;;;14.80;68.10;;;;;;5055085;28;20028;-39
2022/04/16 10:50:13;;;;;;;2.67;2.30;;;14.90;68.20;;;;;;5055088;28;20063;-34
2022/04/16 10:52:39;;;;;;;3.45;2.33;;;14.90;68.60;;;;;;5055051;28;20047;-34
2022/04/16 10:55:06;;;;;;;3.45;2.50;;;14.90;68.20;;;;;;5054788;28;20536;-32
2022/04/16 10:57:32;;;;;;;3.60;2.70;;;15.00;67.60;;;;;;5054916;28;20104;-34
2022/04/16 11:00:09;;;;;;;2.83;2.55;;;15.00;67.80;;;;;;5055006;28;20059;-31
2022/04/16 11:02:35;;;;;;;2.83;1.85;;;14.90;67.40;;;;;;5054629;28;20139;-37
2022/04/16 11:05:09;;;;;;;3.80;2.95;;;14.90;67.60;;;;;;5054784;28;20032;-32
2022/04/16 11:07:40;;;;;;;5.22;3.33;;;14.80;67.00;;;;;;5054775;28;20029;-31
2022/04/16 11:10:08;;;;;;;5.03;3.33;;;14.80;65.80;;;;;;5036588;28;20025;-39
2022/04/16 11:12:37;;;;;;;3.38;2.67;;;14.70;66.10;;;;;;5054444;28;20036;-31
2022/04/16 11:15:06;;;;;;;2.70;2.28;;;14.80;66.60;;;;;;5054853;28;20029;-31
2022/04/16 11:17:32;;;;;;;2.30;2.00;;;14.80;66.70;;;;;;5054264;28;20411;-43
2022/04/16 11:20:03;;;;;;;3.78;2.80;;;14.90;67.40;;;;;;5054520;28;20029;-32
2022/04/16 11:22:29;;;;;;;2.50;2.20;;;15.00;66.90;;;;;;5053607;28;20037;-37
2022/04/16 11:24:55;;;;;;;2.63;2.42;;;15.00;66.50;;;;;;5054352;28;20037;-35
2022/04/16 11:36:01;;;;;;;3.90;3.05;;;15.20;66.40;;;;;;5050774;28;20095;-33
2022/04/16 11:38:29;;;;;;;2.90;2.58;;;15.30;64.50;;;;;;5054036;28;20032;-31
2022/04/16 11:41:05;;;;;;;2.92;2.45;;;15.30;65.00;;;;;;5053933;28;20025;-33
2022/04/16 11:43:32;;;;;;;3.78;2.85;;;15.40;64.90;;;;;;5054052;28;20112;-31
2022/04/16 11:46:02;;;;;;;4.60;2.70;;;15.40;64.70;;;;;;5054344;28;20029;-33
2022/04/16 11:48:30;;;;;;;1.60;1.50;;;15.50;64.30;;;;;;5054130;28;20472;-36
2022/04/16 11:50:56;;;;;;;3.05;2.60;;;15.60;65.80;;;;;;5053956;28;20088;-40
2022/04/16 11:53:22;;;;;;;2.15;1.95;;;15.70;64.60;;;;;;5053991;28;20025;-39
2022/04/16 11:55:49;;;;;;;1.88;1.48;;;15.80;64.70;;;;;;5053679;28;20522;-31
2022/04/16 11:58:16;;;;;;;2.88;2.25;;;15.80;65.20;;;;;;5053980;28;20469;-32
2022/04/16 12:00:54;;;;;;;4.00;2.92;;;15.90;64.90;;;;;;5053921;28;20013;-34
2022/04/16 12:03:20;;;;;;;3.75;2.60;;;15.90;62.80;;;;;;5036574;28;20472;-33
2022/04/16 12:05:48;;;;;;;2.60;2.40;;;15.90;63.00;;;;;;5053635;28;20029;-33
2022/04/16 12:08:16;;;;;;;2.97;2.22;;;15.90;62.40;;;;;;5035469;28;20029;-32
2022/04/16 12:10:47;;;;;;;2.35;2.08;;;16.00;62.00;;;;;;5053237;28;20510;-39
2022/04/16 12:13:14;;;;;;;1.95;1.75;;;16.00;62.40;;;;;;5053036;28;20040;-40
2022/04/16 12:15:42;;;;;;;2.45;2.05;;;16.00;62.60;;;;;;5052744;28;20099;-35
2022/04/16 12:18:15;;;;;;;2.90;1.98;;;16.10;61.90;;;;;;5053352;28;20021;-32
2022/04/16 12:20:47;;;;;;;3.92;2.13;;;16.20;61.50;;;;;;5053121;28;20116;-32
2022/04/16 12:23:32;;;;;;;2.03;1.83;;;16.30;61.40;;;;;;5053151;28;20033;-32
2022/04/16 12:26:05;;;;;;;2.08;1.85;;;16.30;61.20;;;;;;5052878;28;20131;-32
2022/04/16 12:28:39;;;;;;;5.25;2.60;;;16.40;62.10;;;;;;5053235;28;20029;-31
2022/04/16 12:31:05;;;;;;;3.88;2.25;;;16.50;61.10;;;;;;5053311;28;20423;-32
2022/04/16 12:33:30;;;;;;;2.13;1.83;;;16.50;61.40;;;;;;5052741;28;20020;-35
2022/04/16 12:35:58;;;;;;;1.60;1.50;;;16.60;61.40;;;;;;5052970;28;20037;-32
2022/04/16 12:38:27;;;;;;;3.55;2.03;;;16.70;61.60;;;;;;5052775;28;20498;-32
2022/04/16 12:41:10;;;;;;;1.55;1.45;;;16.70;61.30;;;;;;5052639;28;20074;-30
2022/04/16 12:43:40;;;;;;;2.80;2.42;;;16.90;61.20;;;;;;5052693;28;20082;-34
2022/04/16 12:46:06;;;;;;;2.67;1.75;;;16.90;60.90;;;;;;5053040;28;20029;-32
2022/04/16 12:48:31;;;;;;;2.38;2.00;;;16.90;60.00;;;;;;5052347;28;20025;-33
2022/04/16 12:50:57;;;;;;;3.28;2.40;;;16.90;60.20;;;;;;5052744;28;20480;-31
2022/04/16 12:53:24;;;;;;;2.20;1.75;;;17.00;58.00;;;;;;5052280;28;20100;-32
2022/04/16 12:55:50;;;;;;;2.25;1.90;;;17.00;58.50;;;;;;5052257;28;20166;-33
2022/04/16 12:58:15;;;;;;;1.65;1.50;;;17.00;57.30;;;;;;5052466;28;20055;-36
2022/04/16 13:00:41;;;;;;;1.98;1.60;;;17.00;57.80;;;;;;5052297;28;20079;-33
2022/04/16 13:03:07;;;;;;;1.98;1.60;;;17.10;59.60;;;;;;5052246;28;20021;-31
2022/04/16 13:05:33;;;;;;;1.40;1.30;;;17.10;58.90;;;;;;5052066;28;20532;-36
2022/04/16 13:08:00;;;;;;;2.45;1.73;;;17.20;59.20;;;;;;5052281;28;20039;-31